Time;durP1;ratioP1;P1;durP2;ratioP2;P2;SDS_P1;SDS_P2;PMS_P1;PMS_P2;Temp;Humidity;BMP_temperature;BMP_pressure;BME280_temperature;BME280_humidity;BME280_pressure;Samples;Min_cycle;Max_cycle;Signal;HPM_P1;HPM_P2
2024/01/04 00:00:34;;;;;;;9.32;0.77;;;5.90;99.90;;;;;;5066291;28;20041;-88
2024/01/04 00:03:00;;;;;;;5.07;0.77;;;7.00;99.90;;;;;;5082870;28;20135;-87
2024/01/04 00:05:25;;;;;;;6.18;0.70;;;5.90;99.90;;;;;;5085247;28;20044;-87
2024/01/04 00:07:51;;;;;;;3.92;0.80;;;5.80;99.90;;;;;;5087937;28;20044;-84
2024/01/04 00:10:17;;;;;;;13.80;1.05;;;6.90;99.90;;;;;;5082804;28;20792;-85
2024/01/04 00:12:44;;;;;;;6.03;0.85;;;5.90;99.90;;;;;;5081660;28;20399;-84
2024/01/04 00:15:11;;;;;;;3.40;0.68;;;5.80;99.90;;;;;;5082258;28;20456;-86
2024/01/04 00:17:36;;;;;;;3.08;0.60;;;5.90;99.90;;;;;;5084169;28;20127;-85
2024/01/04 00:20:03;;;;;;;3.45;0.70;;;7.00;99.90;;;;;;5085278;28;20486;-85
2024/01/04 00:22:28;;;;;;;3.58;0.60;;;5.80;99.90;;;;;;5080817;28;20048;-84
2024/01/04 00:24:54;;;;;;;3.33;0.70;;;5.80;99.90;;;;;;5082064;28;20039;-84
2024/01/04 00:27:20;;;;;;;6.68;0.60;;;5.80;99.90;;;;;;5080279;28;20109;-86
2024/01/04 00:29:47;;;;;;;1.85;0.43;;;6.50;99.90;;;;;;5084937;28;20040;-84
2024/01/04 00:32:12;;;;;;;5.05;0.73;;;5.80;99.90;;;;;;5084363;28;20483;-84
2024/01/04 00:34:38;;;;;;;3.75;0.60;;;5.80;99.90;;;;;;5082757;28;20043;-87
2024/01/04 00:37:04;;;;;;;5.75;0.50;;;6.90;99.90;;;;;;5079293;28;20060;-84
2024/01/04 00:39:30;;;;;;;5.05;0.60;;;6.30;99.90;;;;;;5080231;28;20048;-87
2024/01/04 00:41:57;;;;;;;5.57;0.60;;;6.50;99.90;;;;;;5082425;28;20055;-83
2024/01/04 00:44:22;;;;;;;9.80;0.70;;;5.70;99.90;;;;;;5081945;28;20056;-84
2024/01/04 00:46:48;;;;;;;3.65;0.70;;;7.00;99.90;;;;;;5084334;28;20060;-84
2024/01/04 00:49:13;;;;;;;1.55;0.40;;;6.80;99.90;;;;;;5082324;28;20044;-86
2024/01/04 00:51:40;;;;;;;5.38;0.50;;;6.50;99.90;;;;;;5084596;28;20047;-87
2024/01/04 00:54:06;;;;;;;4.32;0.68;;;6.90;99.90;;;;;;5087584;28;20053;-82
2024/01/04 00:56:33;;;;;;;5.68;0.80;;;6.60;99.90;;;;;;5086849;28;20586;-86
2024/01/04 00:59:00;;;;;;;3.67;0.55;;;5.70;99.90;;;;;;5086231;28;20536;-85
2024/01/04 01:01:26;;;;;;;6.15;0.75;;;5.90;99.90;;;;;;5082277;28;20044;-83
2024/01/04 01:03:52;;;;;;;3.80;0.70;;;5.60;99.90;;;;;;5080581;28;20048;-85
2024/01/04 01:06:17;;;;;;;7.97;0.75;;;5.60;99.90;;;;;;5082258;28;20048;-85
2024/01/04 01:08:43;;;;;;;5.68;0.60;;;6.10;99.90;;;;;;5083528;28;20048;-85
2024/01/04 01:11:09;;;;;;;3.38;0.50;;;6.50;99.90;;;;;;5084454;28;20044;-84
2024/01/04 01:13:35;;;;;;;2.40;0.63;;;6.60;99.90;;;;;;5080756;28;20407;-85
2024/01/04 01:16:01;;;;;;;6.93;0.63;;;6.70;99.90;;;;;;5083167;28;20041;-85
2024/01/04 01:18:27;;;;;;;3.78;0.60;;;5.40;99.90;;;;;;5084060;28;20096;-87
2024/01/04 01:20:54;;;;;;;4.80;0.88;;;6.30;99.90;;;;;;5084645;28;20083;-85
2024/01/04 01:23:20;;;;;;;6.43;0.77;;;5.40;99.90;;;;;;5084656;28;20044;-84
2024/01/04 01:25:45;;;;;;;7.57;0.70;;;6.60;99.90;;;;;;5081547;28;20070;-86
2024/01/04 01:28:11;;;;;;;2.58;0.60;;;5.40;99.90;;;;;;5063777;28;20519;-84
2024/01/04 01:30:37;;;;;;;7.47;0.93;;;5.70;99.90;;;;;;5082773;28;20052;-95
2024/01/04 01:33:03;;;;;;;4.07;0.88;;;6.40;99.90;;;;;;5079506;28;20036;-91
2024/01/04 01:35:28;;;;;;;2.67;0.52;;;5.30;99.90;;;;;;5080607;28;20070;-86
2024/01/04 01:37:54;;;;;;;5.00;0.55;;;6.30;99.90;;;;;;5086986;28;20051;-85
2024/01/04 01:40:22;;;;;;;3.75;0.80;;;6.50;99.90;;;;;;5088869;28;20044;-83
2024/01/04 01:42:48;;;;;;;7.57;0.73;;;6.10;99.90;;;;;;5087119;28;20040;-84
2024/01/04 01:45:15;;;;;;;3.20;0.57;;;6.50;99.90;;;;;;5086887;28;20048;-90
2024/01/04 01:47:42;;;;;;;3.30;0.50;;;5.40;99.90;;;;;;5085996;28;20044;-85
2024/01/04 01:50:08;;;;;;;5.60;0.80;;;5.30;99.90;;;;;;5078073;28;20119;-85
2024/01/04 01:52:36;;;;;;;4.47;0.70;;;5.30;99.90;;;;;;5086890;28;20041;-92
2024/01/04 01:55:02;;;;;;;2.28;0.50;;;5.30;99.90;;;;;;5090402;28;20495;-87
2024/01/04 01:57:31;;;;;;;4.13;0.90;;;5.30;99.90;;;;;;5090020;28;20044;-84
2024/01/04 01:59:59;;;;;;;4.30;0.50;;;6.10;99.90;;;;;;5090625;28;20040;-85
2024/01/04 02:02:25;;;;;;;6.80;0.88;;;5.30;99.90;;;;;;5086376;28;20055;-85
2024/01/04 02:04:51;;;;;;;4.70;0.80;;;5.30;99.90;;;;;;5087773;28;20062;-84
2024/01/04 02:07:17;;;;;;;6.90;0.85;;;6.60;99.90;;;;;;5071242;28;20143;-86
2024/01/04 02:09:43;;;;;;;7.55;0.82;;;5.20;99.90;;;;;;5091379;28;20047;-83
2024/01/04 02:12:15;;;;;;;2.83;0.40;;;6.40;99.90;;;;;;5087617;28;20047;-84
2024/01/04 02:14:41;;;;;;;2.35;0.50;;;5.60;99.90;;;;;;5087884;28;20041;-84
2024/01/04 02:17:07;;;;;;;8.98;0.70;;;5.20;99.90;;;;;;5086237;28;20089;-84
2024/01/04 02:19:33;;;;;;;5.47;0.90;;;5.30;99.90;;;;;;5089619;28;20052;-89
2024/01/04 02:21:59;;;;;;;5.80;0.60;;;5.10;99.90;;;;;;5090612;28;20570;-83
2024/01/04 02:24:25;;;;;;;4.78;0.63;;;6.00;99.90;;;;;;5086098;28;20115;-84
2024/01/04 02:26:55;;;;;;;4.40;0.80;;;5.10;99.90;;;;;;5090176;28;20123;-83
2024/01/04 02:29:20;;;;;;;2.38;0.50;;;5.10;99.90;;;;;;5087200;28;20040;-84
2024/01/04 02:31:49;;;;;;;1.63;0.47;;;6.20;99.90;;;;;;5083999;28;20052;-84
2024/01/04 02:34:14;;;;;;;4.80;0.90;;;6.00;99.90;;;;;;5085803;28;20055;-83
2024/01/04 02:36:40;;;;;;;4.05;0.60;;;5.70;99.90;;;;;;5087542;28;20040;-83
2024/01/04 02:39:09;;;;;;;2.10;0.52;;;4.80;99.90;;;;;;5089230;28;20142;-84
2024/01/04 02:41:34;;;;;;;4.32;0.70;;;4.80;99.90;;;;;;5087505;28;20063;-82
2024/01/04 02:44:00;;;;;;;3.00;0.50;;;5.80;99.90;;;;;;5078581;28;20041;-87
2024/01/04 02:46:26;;;;;;;1.55;0.70;;;4.70;99.90;;;;;;5083495;28;20060;-83
2024/01/04 02:48:51;;;;;;;2.05;0.57;;;6.10;99.90;;;;;;5084824;28;20257;-84
2024/01/04 02:51:17;;;;;;;2.85;0.40;;;5.80;99.90;;;;;;5088612;28;20040;-85
2024/01/04 02:53:43;;;;;;;4.70;0.70;;;4.50;99.90;;;;;;5088506;28;20380;-89
2024/01/04 02:56:08;;;;;;;4.22;0.80;;;4.60;99.90;;;;;;5085594;28;20120;-88
2024/01/04 02:58:34;;;;;;;2.65;0.50;;;4.50;99.90;;;;;;5085099;28;20045;-83
2024/01/04 03:01:00;;;;;;;4.43;0.60;;;5.80;99.90;;;;;;5085698;28;20040;-91
2024/01/04 03:03:26;;;;;;;3.78;0.60;;;5.60;99.90;;;;;;5089459;28;20048;-83
2024/01/04 03:05:51;;;;;;;4.55;0.80;;;4.40;99.90;;;;;;5065536;28;20102;-83
2024/01/04 03:08:17;;;;;;;3.17;0.50;;;4.70;99.90;;;;;;5088790;28;20117;-83
2024/01/04 03:10:43;;;;;;;5.18;0.90;;;5.50;99.90;;;;;;5089921;28;20044;-84
2024/01/04 03:13:08;;;;;;;6.22;1.00;;;4.70;99.90;;;;;;5082215;28;20119;-83
2024/01/04 03:15:34;;;;;;;6.20;0.70;;;5.40;99.90;;;;;;5088641;28;20040;-83
2024/01/04 03:17:59;;;;;;;4.05;0.68;;;4.30;99.90;;;;;;5088957;28;20043;-87
2024/01/04 03:20:25;;;;;;;4.50;0.90;;;5.50;99.90;;;;;;5083024;28;20670;-83
2024/01/04 03:22:51;;;;;;;6.10;0.90;;;5.50;99.90;;;;;;5089410;28;20051;-83
2024/01/04 03:25:18;;;;;;;5.90;0.65;;;5.40;99.90;;;;;;5085623;28;20042;-83
2024/01/04 03:27:44;;;;;;;4.60;0.70;;;4.20;99.90;;;;;;5083793;28;20044;-83
2024/01/04 03:30:11;;;;;;;6.47;0.70;;;4.20;99.90;;;;;;5080384;28;20044;-84
2024/01/04 03:32:37;;;;;;;1.50;0.50;;;4.20;99.90;;;;;;5078331;28;20048;-83
2024/01/04 03:35:04;;;;;;;2.33;0.73;;;5.40;99.90;;;;;;5081783;28;20036;-84
2024/01/04 03:37:30;;;;;;;9.38;0.77;;;4.30;99.90;;;;;;5080381;28;20502;-83
2024/01/04 03:39:56;;;;;;;5.47;0.80;;;4.10;99.90;;;;;;5080620;28;20042;-83
2024/01/04 03:42:22;;;;;;;4.25;0.80;;;4.20;99.90;;;;;;5084330;28;20052;-89
2024/01/04 03:44:47;;;;;;;6.45;0.80;;;5.40;99.90;;;;;;5088894;28;20042;-88
2024/01/04 03:47:13;;;;;;;3.08;0.65;;;4.10;99.90;;;;;;5084958;28;20048;-83
2024/01/04 03:49:38;;;;;;;3.30;0.52;;;5.00;99.90;;;;;;5084134;28;20765;-92
2024/01/04 03:52:04;;;;;;;4.07;1.15;;;5.00;99.90;;;;;;5084499;28;20064;-86
2024/01/04 03:54:30;;;;;;;5.15;0.70;;;4.00;99.90;;;;;;5086038;28;20547;-83
2024/01/04 03:56:56;;;;;;;2.83;0.65;;;5.20;99.90;;;;;;5086481;28;20040;-83
2024/01/04 03:59:22;;;;;;;5.05;0.70;;;4.00;99.90;;;;;;5087287;28;20120;-88
2024/01/04 04:01:48;;;;;;;6.45;0.70;;;4.00;99.90;;;;;;5086944;28;20068;-84
2024/01/04 04:04:14;;;;;;;3.67;0.50;;;4.00;99.90;;;;;;5087529;28;20044;-84
2024/01/04 04:06:40;;;;;;;6.30;0.88;;;3.90;99.90;;;;;;5082207;28;20061;-87
2024/01/04 04:09:09;;;;;;;5.22;0.57;;;3.90;99.90;;;;;;5088667;28;20047;-88
2024/01/04 04:11:35;;;;;;;5.90;0.70;;;5.10;99.90;;;;;;5088882;28;20044;-84
2024/01/04 04:14:04;;;;;;;4.00;0.70;;;4.70;99.90;;;;;;5087056;28;20051;-83
2024/01/04 04:16:29;;;;;;;3.67;0.57;;;4.00;99.90;;;;;;5085130;28;20074;-85
2024/01/04 04:18:55;;;;;;;5.47;0.70;;;4.80;99.90;;;;;;5087248;28;20047;-96
2024/01/04 04:21:23;;;;;;;5.90;0.75;;;5.20;99.90;;;;;;5071482;28;20052;-83
2024/01/04 04:23:50;;;;;;;2.78;0.50;;;4.30;99.90;;;;;;5090736;28;20048;-84
2024/01/04 04:26:21;;;;;;;4.82;0.75;;;5.20;99.90;;;;;;5087986;28;20443;-83
2024/01/04 04:28:48;;;;;;;2.95;0.50;;;4.00;99.90;;;;;;5083100;28;20048;-90
2024/01/04 04:31:15;;;;;;;2.70;0.50;;;3.90;99.90;;;;;;5085177;28;20044;-88
2024/01/04 04:33:43;;;;;;;2.80;0.70;;;4.80;99.90;;;;;;5088463;28;20483;-83
2024/01/04 04:36:09;;;;;;;6.93;0.80;;;3.90;99.90;;;;;;5085188;28;20094;-83
2024/01/04 04:38:34;;;;;;;3.92;0.63;;;3.90;99.90;;;;;;5081331;28;20751;-84
2024/01/04 04:41:01;;;;;;;3.47;0.70;;;3.90;99.90;;;;;;5083477;28;20080;-86
2024/01/04 04:43:27;;;;;;;3.25;0.60;;;4.70;99.90;;;;;;5078487;28;20037;-84
2024/01/04 04:45:56;;;;;;;4.03;0.80;;;4.00;99.90;;;;;;5086812;28;20039;-83
2024/01/04 04:48:23;;;;;;;5.07;0.98;;;5.20;99.90;;;;;;5088732;28;20050;-85
2024/01/04 04:50:52;;;;;;;8.15;0.80;;;3.80;99.90;;;;;;5075908;28;20055;-84
2024/01/04 04:53:18;;;;;;;2.13;0.68;;;3.90;99.90;;;;;;5090704;28;20097;-83
2024/01/04 04:55:43;;;;;;;3.45;0.80;;;3.90;99.90;;;;;;5085315;28;20044;-87
2024/01/04 04:58:09;;;;;;;6.75;1.02;;;3.90;99.90;;;;;;5085845;28;20043;-83
2024/01/04 05:00:35;;;;;;;3.13;0.80;;;3.80;99.90;;;;;;5084614;28;20043;-83
2024/01/04 05:03:01;;;;;;;4.25;0.50;;;5.20;99.90;;;;;;5075208;28;20429;-95
2024/01/04 05:05:27;;;;;;;7.20;0.60;;;4.70;99.90;;;;;;5087963;28;20044;-85
2024/01/04 05:07:53;;;;;;;4.68;0.75;;;3.80;99.90;;;;;;5086767;28;20067;-85
2024/01/04 05:10:19;;;;;;;6.60;0.85;;;4.90;99.90;;;;;;5086319;28;20045;-85
2024/01/04 05:12:44;;;;;;;5.65;0.73;;;4.70;99.90;;;;;;5086257;28;20097;-83
2024/01/04 05:15:10;;;;;;;3.90;0.80;;;4.90;99.90;;;;;;5085263;28;20056;-83
2024/01/04 05:17:35;;;;;;;3.28;0.50;;;4.70;99.90;;;;;;5078197;28;20063;-85
2024/01/04 05:20:03;;;;;;;3.20;0.65;;;3.60;99.90;;;;;;5085950;28;20055;-84
2024/01/04 05:22:29;;;;;;;2.08;0.60;;;4.50;99.90;;;;;;5088413;28;20043;-85
2024/01/04 05:24:55;;;;;;;5.28;0.88;;;3.80;99.90;;;;;;5085061;28;20049;-83
2024/01/04 05:27:21;;;;;;;9.00;0.88;;;4.30;99.90;;;;;;5089190;28;20513;-83
2024/01/04 05:29:47;;;;;;;4.43;0.80;;;3.60;99.90;;;;;;5088915;28;20036;-84
2024/01/04 05:32:12;;;;;;;3.63;0.70;;;3.50;99.90;;;;;;5082143;28;20059;-83
2024/01/04 05:34:38;;;;;;;7.20;0.90;;;4.80;99.90;;;;;;5086989;28;20044;-86
2024/01/04 05:37:04;;;;;;;3.58;0.95;;;4.40;99.90;;;;;;5087426;28;20048;-84
2024/01/04 05:39:29;;;;;;;7.53;0.80;;;3.40;99.90;;;;;;5084615;28;20051;-84
2024/01/04 05:41:55;;;;;;;4.78;0.60;;;4.80;99.90;;;;;;5086493;28;20048;-84
2024/01/04 05:44:21;;;;;;;6.80;0.93;;;4.40;99.90;;;;;;5086646;28;20048;-83
2024/01/04 05:46:47;;;;;;;4.07;0.70;;;3.70;99.90;;;;;;5088964;28;20040;-83
2024/01/04 05:49:14;;;;;;;6.65;0.88;;;4.60;99.90;;;;;;5084775;28;20037;-84
2024/01/04 05:51:39;;;;;;;4.85;0.82;;;3.30;99.90;;;;;;5084595;28;20063;-83
2024/01/04 05:54:05;;;;;;;4.90;1.05;;;3.30;99.90;;;;;;5087807;28;20059;-84
2024/01/04 05:56:31;;;;;;;9.93;1.33;;;4.10;99.90;;;;;;5088216;28;20072;-86
2024/01/04 05:58:56;;;;;;;4.32;0.80;;;4.80;99.90;;;;;;5084608;28;20102;-83
2024/01/04 06:01:22;;;;;;;3.45;0.77;;;4.30;99.90;;;;;;5079844;28;20044;-83
2024/01/04 06:03:48;;;;;;;3.95;0.70;;;4.50;99.90;;;;;;5084069;28;20050;-83
2024/01/04 06:06:16;;;;;;;13.07;1.15;;;3.30;99.90;;;;;;5067806;28;20075;-83
2024/01/04 06:08:42;;;;;;;2.83;0.65;;;3.50;99.90;;;;;;5081228;28;20053;-83
2024/01/04 06:11:09;;;;;;;2.47;0.88;;;4.70;99.90;;;;;;5087987;28;20088;-87
2024/01/04 06:13:35;;;;;;;6.18;0.80;;;3.70;99.90;;;;;;5087171;28;20867;-85
2024/01/04 06:16:07;;;;;;;4.28;1.25;;;3.80;99.90;;;;;;5083220;28;20071;-84
2024/01/04 06:18:36;;;;;;;4.28;0.90;;;3.40;99.90;;;;;;5082643;28;20052;-85
2024/01/04 06:21:03;;;;;;;8.02;1.23;;;3.40;99.90;;;;;;5082071;28;20036;-84
2024/01/04 06:23:29;;;;;;;4.30;0.70;;;3.30;99.90;;;;;;5080429;28;20491;-85
2024/01/04 06:25:55;;;;;;;3.22;0.75;;;3.40;99.90;;;;;;5087072;28;20048;-87
2024/01/04 06:28:25;;;;;;;3.03;0.70;;;3.90;99.90;;;;;;5089616;28;20047;-84
2024/01/04 06:30:50;;;;;;;2.92;0.85;;;3.30;99.90;;;;;;5085877;28;20791;-85
2024/01/04 06:33:17;;;;;;;7.15;0.70;;;3.20;99.90;;;;;;5087514;28;20081;-84
2024/01/04 06:35:44;;;;;;;5.78;0.75;;;4.50;99.90;;;;;;5096869;28;20076;-86
2024/01/04 06:38:10;;;;;;;5.45;1.13;;;3.30;99.90;;;;;;5096430;28;20036;-84
2024/01/04 06:40:40;;;;;;;4.15;0.60;;;3.50;99.90;;;;;;5084113;28;20040;-87
2024/01/04 06:43:09;;;;;;;6.68;1.05;;;3.20;99.90;;;;;;5092536;28;20455;-86
2024/01/04 06:45:37;;;;;;;2.78;0.60;;;4.30;99.90;;;;;;5092462;28;20036;-84
2024/01/04 06:48:08;;;;;;;6.50;1.25;;;4.20;99.90;;;;;;5091768;28;20048;-83
2024/01/04 06:50:34;;;;;;;6.00;1.08;;;3.20;99.90;;;;;;5091335;28;20036;-84
2024/01/04 06:53:01;;;;;;;4.28;0.75;;;3.10;99.90;;;;;;5093281;28;20115;-84
2024/01/04 06:55:26;;;;;;;4.63;0.85;;;3.40;99.90;;;;;;5092115;28;20051;-84
2024/01/04 06:57:52;;;;;;;4.20;1.00;;;4.30;99.90;;;;;;5065611;28;20060;-85
2024/01/04 07:00:19;;;;;;;3.13;0.70;;;4.20;99.90;;;;;;5088908;28;20052;-84
2024/01/04 07:02:45;;;;;;;4.20;0.80;;;3.10;99.90;;;;;;5086815;28;20059;-84
2024/01/04 07:05:11;;;;;;;7.35;0.93;;;3.10;99.90;;;;;;5089290;28;20147;-84
2024/01/04 07:07:39;;;;;;;5.45;1.00;;;3.10;99.90;;;;;;5089488;28;20060;-84
2024/01/04 07:10:09;;;;;;;2.08;0.88;;;2.90;99.90;;;;;;5077632;28;20049;-83
2024/01/04 07:12:36;;;;;;;6.90;0.82;;;3.00;99.90;;;;;;5086158;28;20106;-84
2024/01/04 07:15:07;;;;;;;3.95;1.10;;;4.20;99.90;;;;;;5090369;28;20056;-84
2024/01/04 07:17:33;;;;;;;2.92;0.60;;;3.00;99.90;;;;;;5091779;28;20039;-84
2024/01/04 07:19:58;;;;;;;2.60;0.65;;;2.90;99.90;;;;;;5090908;28;20123;-84
2024/01/04 07:22:24;;;;;;;2.42;0.70;;;2.90;99.90;;;;;;5086088;28;20472;-84
2024/01/04 07:24:50;;;;;;;5.05;1.23;;;2.80;99.90;;;;;;5083523;28;20052;-85
2024/01/04 07:27:15;;;;;;;5.82;0.90;;;2.80;99.90;;;;;;5088620;28;20037;-84
2024/01/04 07:29:41;;;;;;;5.80;1.00;;;3.30;99.90;;;;;;5089900;28;20036;-84
2024/01/04 07:32:07;;;;;;;4.20;0.90;;;3.00;99.90;;;;;;5087075;28;20062;-84
2024/01/04 07:34:39;;;;;;;4.55;0.73;;;2.80;99.90;;;;;;5071531;28;20099;-83
2024/01/04 07:37:05;;;;;;;5.18;1.02;;;2.80;99.90;;;;;;5088612;28;20066;-84
2024/01/04 07:39:31;;;;;;;5.28;1.17;;;3.70;99.90;;;;;;5089809;28;20045;-84
2024/01/04 07:41:57;;;;;;;1.92;0.60;;;2.80;99.90;;;;;;5092958;28;20039;-84
2024/01/04 07:44:24;;;;;;;5.40;1.33;;;2.70;99.90;;;;;;5091169;28;20048;-84
2024/01/04 07:46:53;;;;;;;4.70;1.80;;;2.80;99.90;;;;;;5088711;28;20049;-84
2024/01/04 07:49:18;;;;;;;2.17;0.90;;;3.80;99.90;;;;;;5088791;28;20045;-84
2024/01/04 07:51:44;;;;;;;2.20;1.00;;;4.00;99.90;;;;;;5091975;28;20126;-84
2024/01/04 07:54:10;;;;;;;9.88;1.48;;;2.60;99.90;;;;;;5094824;28;20505;-84
2024/01/04 07:56:39;;;;;;;4.70;0.93;;;2.60;99.90;;;;;;5086739;28;20048;-84
2024/01/04 07:59:04;;;;;;;4.55;0.80;;;2.60;99.90;;;;;;5089777;28;20051;-84
2024/01/04 08:01:30;;;;;;;7.55;1.15;;;3.80;99.90;;;;;;5090773;28;20121;-84
2024/01/04 08:03:56;;;;;;;4.85;0.93;;;2.50;99.90;;;;;;5086919;28;20452;-84
2024/01/04 08:06:21;;;;;;;4.10;0.88;;;2.60;99.90;;;;;;5086567;28;20064;-84
2024/01/04 08:08:48;;;;;;;4.15;1.00;;;2.50;99.90;;;;;;5088188;28;20048;-83
2024/01/04 08:11:14;;;;;;;1.92;0.80;;;2.50;99.90;;;;;;5080915;28;20044;-84
2024/01/04 08:13:40;;;;;;;6.10;1.25;;;3.50;99.90;;;;;;5091820;28;20040;-84
2024/01/04 08:16:07;;;;;;;6.82;0.90;;;3.30;99.90;;;;;;5089589;28;20126;-84
2024/01/04 08:18:35;;;;;;;5.03;1.17;;;2.40;99.90;;;;;;5087026;28;20522;-84
2024/01/04 08:21:02;;;;;;;2.35;0.90;;;3.10;99.90;;;;;;5095669;28;20047;-84
2024/01/04 08:23:30;;;;;;;7.35;0.90;;;2.50;99.90;;;;;;5084697;28;20031;-87
2024/01/04 08:25:56;;;;;;;5.13;0.85;;;2.40;99.90;;;;;;5067263;28;20119;-85
2024/01/04 08:28:22;;;;;;;6.97;0.98;;;2.40;99.90;;;;;;5085181;28;20079;-85
2024/01/04 08:30:48;;;;;;;3.75;0.90;;;2.40;99.90;;;;;;5085018;28;20043;-88
2024/01/04 08:33:14;;;;;;;4.50;1.27;;;3.60;99.90;;;;;;5090787;28;20044;-84
2024/01/04 08:35:40;;;;;;;5.03;1.08;;;3.10;99.90;;;;;;5092081;28;20096;-85
2024/01/04 08:38:06;;;;;;;2.03;0.98;;;3.70;99.90;;;;;;5087664;28;20048;-85
2024/01/04 08:40:49;;;;;;;3.75;0.90;;;2.30;99.90;;;;;;5091353;28;21420;-84
2024/01/04 08:43:34;;;;;;;7.15;1.17;;;2.40;99.90;;;;;;5090744;28;20035;-85
2024/01/04 08:46:01;;;;;;;4.07;0.90;;;3.40;99.90;;;;;;5091394;28;20052;-85
2024/01/04 08:48:41;;;;;;;7.28;1.45;;;3.20;99.90;;;;;;5084970;28;20078;-89
2024/01/04 08:51:06;;;;;;;5.63;1.25;;;3.40;99.90;;;;;;5091605;28;20047;-85
2024/01/04 08:53:32;;;;;;;4.85;1.40;;;2.20;99.90;;;;;;5095276;28;20385;-87
2024/01/04 08:55:58;;;;;;;3.10;1.17;;;3.70;99.90;;;;;;5088299;28;20482;-90
2024/01/04 08:58:24;;;;;;;2.40;1.02;;;2.40;99.90;;;;;;5090360;28;20048;-91
2024/01/04 09:00:49;;;;;;;4.82;1.13;;;3.00;99.90;;;;;;5079489;28;20432;-92
2024/01/04 09:03:15;;;;;;;2.75;1.15;;;2.40;99.90;;;;;;5089194;28;20068;-85
2024/01/04 09:05:43;;;;;;;9.40;1.08;;;2.60;99.90;;;;;;5089089;28;20123;-88
2024/01/04 09:08:12;;;;;;;4.85;1.17;;;2.50;99.90;;;;;;5088171;28;20852;-89
2024/01/04 09:10:37;;;;;;;6.20;1.20;;;3.10;99.90;;;;;;5089341;28;20083;-85
2024/01/04 09:13:06;;;;;;;4.75;1.55;;;3.90;99.90;;;;;;5080902;28;20040;-96
2024/01/04 09:15:32;;;;;;;4.80;1.80;;;3.80;99.90;;;;;;5084279;28;20099;-86
2024/01/04 09:17:57;;;;;;;4.35;1.40;;;3.90;99.90;;;;;;5079207;28;20044;-85
2024/01/04 09:20:24;;;;;;;5.47;1.45;;;2.60;99.90;;;;;;5087512;28;20187;-85
2024/01/04 09:22:50;;;;;;;5.97;1.83;;;3.20;99.90;;;;;;5088438;28;20051;-84
2024/01/04 09:25:16;;;;;;;3.92;1.45;;;3.60;99.90;;;;;;5085503;28;20036;-84
2024/01/04 09:27:41;;;;;;;8.00;2.08;;;2.80;99.90;;;;;;5076390;28;20100;-96
2024/01/04 09:30:08;;;;;;;5.10;1.67;;;4.00;99.90;;;;;;5085646;28;20040;-88
2024/01/04 09:32:34;;;;;;;5.10;1.65;;;3.00;99.90;;;;;;5065599;28;20039;-86
2024/01/04 09:35:00;;;;;;;9.85;1.65;;;2.90;99.90;;;;;;5080609;28;20040;-86
2024/01/04 09:37:25;;;;;;;5.55;1.67;;;3.90;99.90;;;;;;5079521;28;20048;-84
2024/01/04 09:39:51;;;;;;;4.30;1.58;;;3.40;99.90;;;;;;5077718;28;20029;-85
2024/01/04 09:42:20;;;;;;;4.43;1.70;;;3.20;99.90;;;;;;5079092;28;20052;-87
2024/01/04 09:44:49;;;;;;;6.68;1.65;;;4.40;99.90;;;;;;5081930;28;20040;-85
2024/01/04 09:57:19;;;;;;;;;;;;;;;;;;;;;
2024/01/04 10:00:33;;;;;;;6.05;1.30;;;4.30;99.90;;;;;;5005926;28;20055;-89
2024/01/04 10:07:06;;;;;;;5.18;1.15;;;3.60;99.90;;;;;;5141725;23;20049;-85
2024/01/04 10:09:43;;;;;;;7.43;1.25;;;4.80;99.90;;;;;;5022686;28;20057;-84
2024/01/04 10:12:12;;;;;;;3.88;1.00;;;5.30;99.90;;;;;;5033994;28;20433;-85
2024/01/04 10:14:38;;;;;;;8.80;1.42;;;5.00;99.90;;;;;;5009961;28;20073;-85
2024/01/04 10:17:04;;;;;;;6.88;1.17;;;4.70;99.90;;;;;;5024772;28;20128;-84
2024/01/04 10:19:31;;;;;;;4.88;1.00;;;5.30;99.90;;;;;;5024913;28;20104;-85
2024/01/04 10:22:01;;;;;;;3.90;1.17;;;4.90;99.90;;;;;;5006643;28;20060;-86
2024/01/04 10:24:29;;;;;;;5.70;1.00;;;4.70;99.90;;;;;;5022203;28;20393;-85
2024/01/04 10:26:57;;;;;;;10.35;1.10;;;5.30;99.90;;;;;;5000845;28;20079;-85
2024/01/04 10:29:27;;;;;;;5.07;1.00;;;4.30;99.90;;;;;;5015990;28;20500;-85
2024/01/04 10:32:02;;;;;;;5.85;1.27;;;4.40;99.90;;;;;;4991496;28;20430;-86
2024/01/04 10:34:29;;;;;;;5.90;2.25;;;4.40;99.90;;;;;;5015581;28;20084;-85
2024/01/04 10:37:12;;;;;;;6.93;1.45;;;5.20;99.90;;;;;;5025005;28;20041;-87
2024/01/04 10:39:39;;;;;;;3.95;0.80;;;4.50;99.90;;;;;;5016707;28;20076;-85
2024/01/04 10:42:07;;;;;;;2.78;0.80;;;5.40;99.90;;;;;;5025296;28;20112;-85
2024/01/04 10:44:33;;;;;;;5.78;0.88;;;4.60;99.90;;;;;;5004548;28;20049;-85
2024/01/04 10:47:01;;;;;;;4.53;0.70;;;4.60;99.90;;;;;;5004340;28;20042;-84
2024/01/04 10:49:27;;;;;;;5.50;0.70;;;5.50;99.90;;;;;;5005053;28;20126;-90
2024/01/04 10:51:55;;;;;;;4.40;0.70;;;5.80;99.90;;;;;;4991878;28;20049;-86
2024/01/04 10:54:31;;;;;;;3.65;0.75;;;5.80;99.90;;;;;;5024987;28;20037;-85
2024/01/04 10:57:02;;;;;;;5.75;0.73;;;4.70;99.90;;;;;;5016453;28;20037;-86
2024/01/04 10:59:32;;;;;;;1.23;0.47;;;4.80;99.90;;;;;;5007230;28;20376;-84
2024/01/04 11:01:59;;;;;;;3.67;0.88;;;5.30;99.90;;;;;;5006914;28;20053;-85
2024/01/04 11:04:28;;;;;;;3.88;0.73;;;4.90;99.90;;;;;;5017524;28;20117;-85
2024/01/04 11:06:55;;;;;;;4.78;0.75;;;6.20;99.90;;;;;;4989042;28;20062;-85
2024/01/04 11:09:22;;;;;;;2.95;0.82;;;6.40;99.90;;;;;;5007068;28;20081;-85
2024/01/04 11:11:52;;;;;;;6.03;1.00;;;6.20;99.90;;;;;;5005057;28;20049;-85
2024/01/04 11:14:31;;;;;;;4.78;0.70;;;5.10;99.90;;;;;;5003388;28;20071;-85
2024/01/04 11:17:11;;;;;;;1.85;0.47;;;5.10;99.90;;;;;;4987883;28;20827;-86
2024/01/04 11:19:42;;;;;;;3.78;0.70;;;5.20;99.90;;;;;;5006370;28;20057;-85
2024/01/04 11:22:34;;;;;;;3.42;0.60;;;5.10;99.90;;;;;;5022124;28;20111;-85
2024/01/04 11:25:34;;;;;;;4.07;0.80;;;5.10;99.90;;;;;;5003357;28;20046;-88
2024/01/04 11:28:03;;;;;;;3.97;0.70;;;5.20;99.90;;;;;;5009725;28;20439;-85
2024/01/04 11:30:29;;;;;;;2.85;0.60;;;6.10;99.90;;;;;;5006352;28;20041;-85
2024/01/04 11:33:05;;;;;;;3.50;1.13;;;5.80;99.90;;;;;;5006034;28;20052;-87
2024/01/04 11:35:36;;;;;;;3.78;0.63;;;5.20;99.90;;;;;;5023798;28;20456;-85
2024/01/04 11:38:07;;;;;;;9.68;0.68;;;6.40;99.90;;;;;;5033825;28;20041;-85
2024/01/04 11:40:37;;;;;;;4.72;0.60;;;5.80;99.90;;;;;;5013522;28;20095;-84
2024/01/04 11:43:13;;;;;;;4.43;1.02;;;5.70;99.90;;;;;;5005748;28;20048;-83
2024/01/04 11:45:42;;;;;;;2.97;0.52;;;6.40;99.90;;;;;;4997607;28;20041;-84
2024/01/04 11:48:10;;;;;;;3.85;1.00;;;5.40;99.90;;;;;;5011582;28;20045;-85
2024/01/04 11:50:45;;;;;;;5.72;0.70;;;6.10;99.90;;;;;;5004473;28;20073;-85
2024/01/04 11:53:13;;;;;;;4.38;0.60;;;6.20;99.90;;;;;;5005845;28;20381;-85
2024/01/04 11:55:40;;;;;;;2.35;0.50;;;5.40;99.90;;;;;;5028902;28;20049;-85
2024/01/04 11:58:09;;;;;;;2.75;0.80;;;5.40;99.90;;;;;;5014464;28;20508;-85
2024/01/04 12:00:37;;;;;;;3.40;0.80;;;6.40;99.90;;;;;;5020853;28;20081;-84
2024/01/04 12:03:15;;;;;;;2.60;0.77;;;6.40;99.90;;;;;;4989064;28;20044;-84
2024/01/04 12:05:45;;;;;;;2.63;0.68;;;6.20;99.90;;;;;;5026161;28;20083;-85
2024/01/04 12:08:24;;;;;;;7.40;0.98;;;5.40;99.90;;;;;;5023063;28;20060;-85
2024/01/04 12:10:54;;;;;;;2.20;0.68;;;6.30;99.90;;;;;;5022911;28;20052;-86
2024/01/04 12:13:20;;;;;;;2.75;0.73;;;5.30;99.90;;;;;;5026404;28;20050;-86
2024/01/04 12:15:45;;;;;;;4.65;0.90;;;5.30;99.90;;;;;;5019459;28;20489;-85
2024/01/04 12:18:12;;;;;;;8.23;1.33;;;6.30;99.90;;;;;;5005414;28;20114;-85
2024/01/04 12:20:38;;;;;;;2.03;0.60;;;6.30;99.90;;;;;;5022964;28;20045;-85
2024/01/04 12:23:06;;;;;;;5.70;1.00;;;6.40;99.90;;;;;;5020053;28;20069;-85
2024/01/04 12:25:38;;;;;;;4.70;0.90;;;5.70;99.90;;;;;;5026561;28;20041;-85
2024/01/04 12:28:13;;;;;;;6.40;0.80;;;5.20;99.90;;;;;;5020436;28;20377;-90
2024/01/04 12:30:42;;;;;;;;;;;5.30;99.90;;;;;;5019756;28;20088;-88
2024/01/04 12:33:17;;;;;;;5.00;0.60;;;5.40;99.90;;;;;;5002386;28;19987;-85
2024/01/04 12:35:42;;;;;;;3.70;0.90;;;5.30;99.90;;;;;;5026360;23;20124;-84
2024/01/04 12:38:08;;;;;;;3.75;0.85;;;6.70;99.90;;;;;;5022837;28;20144;-85
2024/01/04 12:40:45;;;;;;;3.75;0.70;;;6.40;99.90;;;;;;5018529;28;20049;-86
2024/01/04 12:43:14;;;;;;;2.80;0.82;;;5.60;99.90;;;;;;5001510;28;20104;-87
2024/01/04 12:45:39;;;;;;;3.38;1.23;;;6.40;99.90;;;;;;4977090;28;20033;-86
2024/01/04 12:48:40;;;;;;;4.50;0.77;;;6.30;99.90;;;;;;5007324;23;20115;-85
2024/01/04 12:51:14;;;;;;;3.88;0.80;;;5.60;99.90;;;;;;4885452;29;20089;-85
2024/01/04 12:53:55;;;;;;;2.60;0.65;;;5.60;99.90;;;;;;4892265;29;20052;-85
2024/01/04 12:56:21;;;;;;;2.25;0.70;;;5.60;99.90;;;;;;4938917;23;20146;-85
2024/01/04 12:58:47;;;;;;;3.67;0.88;;;6.20;99.90;;;;;;4983131;28;20099;-87
2024/01/04 13:01:12;;;;;;;3.25;0.80;;;6.60;99.90;;;;;;4968804;28;20093;-84
2024/01/04 13:04:06;;;;;;;6.57;1.00;;;5.60;99.90;;;;;;4983536;28;20053;-84
2024/01/04 13:06:31;;;;;;;2.97;1.00;;;5.50;99.90;;;;;;4998785;28;20055;-84
2024/01/04 13:08:57;;;;;;;4.93;1.48;;;5.40;99.90;;;;;;5000733;28;20074;-85
2024/01/04 13:11:23;;;;;;;2.75;1.45;;;6.00;99.90;;;;;;4998539;28;20231;-84
2024/01/04 13:13:50;;;;;;;8.73;1.10;;;5.50;99.90;;;;;;4981232;28;20046;-84